Terminal Aerodrome Forecast
Issued by NWS

Home | Current Version | Previous Version | Text Only | Print | Product List | Glossary On
Versions: 1 2 3 4 5 6 7 8 9 10 11 12 13 14 15 16 17 18 19 20 21 22 23 24
000
FTUS45 KPSR 172100 AAA
TAFPHX
TAF AMD
KPHX 172101Z 1721/1818 21004KT P6SM VCSH BKN050 BKN090 OVC140
     FM180000 23006KT P6SM SCT030 BKN050 OVC120
     FM180300 12005KT P6SM VCSH SCT070 BKN100 BKN180
     FM180700 10006KT P6SM SCT060 BKN080 BKN120=

USA.gov is the U.S. government's official web portal to all federal, state and local government web resources and services.